sensor_id;sensor_type;location;lat;lon;timestamp;pressure;altitude;pressure_sealevel;temperature;humidity
64841;BME280;51307;52.162;7.560;2023-05-22T00:02:05;100977.94;;;18.82;64.00
64841;BME280;51307;52.162;7.560;2023-05-22T00:04:31;100973.78;;;18.66;64.79
64841;BME280;51307;52.162;7.560;2023-05-22T00:06:56;100979.41;;;18.64;64.60
64841;BME280;51307;52.162;7.560;2023-05-22T00:09:25;100981.09;;;18.59;64.94
64841;BME280;51307;52.162;7.560;2023-05-22T00:11:51;100976.91;;;18.76;64.30
64841;BME280;51307;52.162;7.560;2023-05-22T00:14:17;100967.09;;;18.75;64.09
64841;BME280;51307;52.162;7.560;2023-05-22T00:16:42;100981.47;;;18.76;63.92
64841;BME280;51307;52.162;7.560;2023-05-22T00:19:08;100979.41;;;18.85;63.92
64841;BME280;51307;52.162;7.560;2023-05-22T00:21:41;100977.13;;;18.81;63.96
64841;BME280;51307;52.162;7.560;2023-05-22T00:24:07;100969.16;;;18.87;63.34
64841;BME280;51307;52.162;7.560;2023-05-22T00:26:32;100941.50;;;18.58;64.45
64841;BME280;51307;52.162;7.560;2023-05-22T00:28:58;100940.63;;;18.77;63.81
64841;BME280;51307;52.162;7.560;2023-05-22T00:31:23;100940.19;;;18.87;63.39
64841;BME280;51307;52.162;7.560;2023-05-22T00:33:49;100942.25;;;18.98;62.72
64841;BME280;51307;52.162;7.560;2023-05-22T00:36:14;100942.06;;;18.87;62.82
64841;BME280;51307;52.162;7.560;2023-05-22T00:38:40;100943.38;;;18.71;63.14
64841;BME280;51307;52.162;7.560;2023-05-22T00:41:05;100942.72;;;18.75;63.00
64841;BME280;51307;52.162;7.560;2023-05-22T00:43:32;100931.44;;;18.72;62.79
64841;BME280;51307;52.162;7.560;2023-05-22T00:45:58;100949.63;;;18.64;63.63
64841;BME280;51307;52.162;7.560;2023-05-22T00:48:24;100947.34;;;18.55;63.80
64841;BME280;51307;52.162;7.560;2023-05-22T00:50:51;100949.84;;;18.43;63.85
64841;BME280;51307;52.162;7.560;2023-05-22T00:53:23;100954.41;;;18.62;64.01
64841;BME280;51307;52.162;7.560;2023-05-22T00:55:50;100966.31;;;18.55;64.08
64841;BME280;51307;52.162;7.560;2023-05-22T00:58:17;100962.34;;;18.30;64.88
64841;BME280;51307;52.162;7.560;2023-05-22T01:00:43;100941.94;;;18.48;64.41
64841;BME280;51307;52.162;7.560;2023-05-22T01:03:10;100936.50;;;18.55;64.35
64841;BME280;51307;52.162;7.560;2023-05-22T01:05:37;100936.88;;;18.72;63.29
64841;BME280;51307;52.162;7.560;2023-05-22T01:08:04;100937.53;;;18.67;62.95
64841;BME280;51307;52.162;7.560;2023-05-22T01:10:33;100930.41;;;18.73;62.43
64841;BME280;51307;52.162;7.560;2023-05-22T01:15:39;100935.63;;;18.74;62.16
64841;BME280;51307;52.162;7.560;2023-05-22T01:26:35;100926.66;;;18.80;60.16
64841;BME280;51307;52.162;7.560;2023-05-22T01:29:20;100928.34;;;18.75;59.88
64841;BME280;51307;52.162;7.560;2023-05-22T01:31:54;100921.25;;;18.67;60.54
64841;BME280;51307;52.162;7.560;2023-05-22T01:34:21;100923.09;;;18.73;60.35
64841;BME280;51307;52.162;7.560;2023-05-22T01:36:49;100917.72;;;18.60;60.37
64841;BME280;51307;52.162;7.560;2023-05-22T01:39:18;100918.31;;;18.75;59.59
64841;BME280;51307;52.162;7.560;2023-05-22T01:41:49;100911.41;;;18.86;nan
64841;BME280;51307;52.162;7.560;2023-05-22T01:44:14;100911.03;;;18.69;nan
64841;BME280;51307;52.162;7.560;2023-05-22T01:46:40;100910.44;;;18.54;nan
64841;BME280;51307;52.162;7.560;2023-05-22T01:49:05;100907.31;;;18.57;nan
64841;BME280;51307;52.162;7.560;2023-05-22T01:54:30;100902.53;;;18.52;nan
64841;BME280;51307;52.162;7.560;2023-05-22T01:57:09;100910.22;;;18.48;nan
64841;BME280;51307;52.162;7.560;2023-05-22T01:59:58;100909.22;;;18.43;nan
64841;BME280;51307;52.162;7.560;2023-05-22T02:02:27;100904.38;;;18.65;nan
64841;BME280;51307;52.162;7.560;2023-05-22T02:04:59;100891.03;;;18.57;nan
64841;BME280;51307;52.162;7.560;2023-05-22T02:07:28;100881.69;;;18.33;nan
64841;BME280;51307;52.162;7.560;2023-05-22T02:09:55;100892.72;;;18.58;nan
64841;BME280;51307;52.162;7.560;2023-05-22T02:12:22;100887.31;;;18.44;nan
64841;BME280;51307;52.162;7.560;2023-05-22T02:14:49;100883.56;;;18.59;nan
64841;BME280;51307;52.162;7.560;2023-05-22T02:17:15;100886.47;;;18.64;nan
64841;BME280;51307;52.162;7.560;2023-05-22T02:19:43;100885.84;;;18.62;nan
64841;BME280;51307;52.162;7.560;2023-05-22T02:22:09;100896.09;;;18.33;nan
64841;BME280;51307;52.162;7.560;2023-05-22T02:24:39;100881.88;;;18.24;nan
64841;BME280;51307;52.162;7.560;2023-05-22T02:27:06;100883.13;;;18.08;nan
64841;BME280;51307;52.162;7.560;2023-05-22T02:29:31;100877.50;;;17.90;nan
64841;BME280;51307;52.162;7.560;2023-05-22T02:31:57;100883.56;;;17.98;nan
64841;BME280;51307;52.162;7.560;2023-05-22T02:34:22;100883.94;;;17.62;nan
64841;BME280;51307;52.162;7.560;2023-05-22T02:36:48;100885.38;;;17.58;nan
64841;BME280;51307;52.162;7.560;2023-05-22T02:39:18;100879.75;;;17.53;nan
64841;BME280;51307;52.162;7.560;2023-05-22T02:41:44;100881.41;;;17.54;nan
64841;BME280;51307;52.162;7.560;2023-05-22T02:44:10;100874.97;;;17.61;nan
64841;BME280;51307;52.162;7.560;2023-05-22T02:46:35;100873.31;;;17.60;nan
64841;BME280;51307;52.162;7.560;2023-05-22T02:49:01;100868.28;;;17.44;nan
64841;BME280;51307;52.162;7.560;2023-05-22T02:51:26;100869.50;;;17.41;nan
64841;BME280;51307;52.162;7.560;2023-05-22T02:53:52;100866.25;;;17.66;nan
64841;BME280;51307;52.162;7.560;2023-05-22T02:56:17;100873.34;;;17.67;nan
64841;BME280;51307;52.162;7.560;2023-05-22T02:58:43;100864.34;;;17.53;nan
64841;BME280;51307;52.162;7.560;2023-05-22T03:01:09;100854.34;;;17.40;nan
64841;BME280;51307;52.162;7.560;2023-05-22T03:03:35;100843.97;;;17.64;nan
64841;BME280;51307;52.162;7.560;2023-05-22T03:06:01;100853.31;;;17.61;nan
64841;BME280;51307;52.162;7.560;2023-05-22T03:08:28;100848.16;;;17.87;nan
64841;BME280;51307;52.162;7.560;2023-05-22T03:10:55;100850.22;;;17.71;nan
64841;BME280;51307;52.162;7.560;2023-05-22T03:13:21;100856.91;;;17.75;nan
64841;BME280;51307;52.162;7.560;2023-05-22T03:15:46;100849.00;;;17.80;nan
64841;BME280;51307;52.162;7.560;2023-05-22T03:18:11;100841.06;;;17.79;nan
64841;BME280;51307;52.162;7.560;2023-05-22T03:20:37;100848.59;;;17.97;nan
64841;BME280;51307;52.162;7.560;2023-05-22T03:23:03;100848.78;;;17.82;nan
64841;BME280;51307;52.162;7.560;2023-05-22T03:25:29;100845.88;;;17.77;nan
64841;BME280;51307;52.162;7.560;2023-05-22T03:27:55;100843.38;;;17.89;nan
64841;BME280;51307;52.162;7.560;2023-05-22T03:30:20;100837.75;;;17.77;nan
64841;BME280;51307;52.162;7.560;2023-05-22T03:32:46;100836.06;;;17.62;nan
64841;BME280;51307;52.162;7.560;2023-05-22T03:35:11;100824.81;;;17.66;nan
64841;BME280;51307;52.162;7.560;2023-05-22T03:37:39;100822.97;;;17.66;nan
64841;BME280;51307;52.162;7.560;2023-05-22T03:40:05;100801.94;;;17.88;nan
64841;BME280;51307;52.162;7.560;2023-05-22T03:42:31;100819.84;;;17.96;nan
64841;BME280;51307;52.162;7.560;2023-05-22T03:44:57;100811.09;;;17.87;nan
64841;BME280;51307;52.162;7.560;2023-05-22T03:47:22;100799.66;;;17.98;nan
64841;BME280;51307;52.162;7.560;2023-05-22T03:49:48;100804.03;;;17.93;nan
64841;BME280;51307;52.162;7.560;2023-05-22T03:52:13;100799.63;;;18.05;nan
64841;BME280;51307;52.162;7.560;2023-05-22T03:54:39;100799.00;;;17.83;nan
64841;BME280;51307;52.162;7.560;2023-05-22T03:57:04;100800.47;;;17.66;nan
64841;BME280;51307;52.162;7.560;2023-05-22T03:59:30;100797.75;;;17.79;nan
64841;BME280;51307;52.162;7.560;2023-05-22T04:01:55;100810.91;;;17.75;nan
64841;BME280;51307;52.162;7.560;2023-05-22T04:04:23;100803.38;;;17.64;nan
64841;BME280;51307;52.162;7.560;2023-05-22T04:06:51;100800.69;;;17.64;nan
64841;BME280;51307;52.162;7.560;2023-05-22T04:09:17;100806.09;;;17.64;nan
64841;BME280;51307;52.162;7.560;2023-05-22T04:11:43;100799.03;;;17.63;nan
64841;BME280;51307;52.162;7.560;2023-05-22T04:14:08;100807.56;;;17.73;nan
64841;BME280;51307;52.162;7.560;2023-05-22T04:16:34;100811.28;;;17.86;nan
64841;BME280;51307;52.162;7.560;2023-05-22T04:19:00;100811.09;;;17.54;nan
64841;BME280;51307;52.162;7.560;2023-05-22T04:21:28;100805.69;;;17.54;nan
64841;BME280;51307;52.162;7.560;2023-05-22T04:23:53;100812.53;;;17.76;nan
64841;BME280;51307;52.162;7.560;2023-05-22T04:26:19;100804.03;;;17.66;nan
64841;BME280;51307;52.162;7.560;2023-05-22T04:28:47;100802.56;;;17.63;nan
64841;BME280;51307;52.162;7.560;2023-05-22T04:31:13;100807.34;;;17.61;nan
64841;BME280;51307;52.162;7.560;2023-05-22T04:33:39;100807.16;;;17.63;nan
64841;BME280;51307;52.162;7.560;2023-05-22T04:36:05;100806.94;;;17.64;nan
64841;BME280;51307;52.162;7.560;2023-05-22T04:38:31;100810.25;;;17.60;nan
64841;BME280;51307;52.162;7.560;2023-05-22T04:41:01;100808.59;;;17.66;nan
64841;BME280;51307;52.162;7.560;2023-05-22T04:43:27;100812.13;;;17.66;nan
64841;BME280;51307;52.162;7.560;2023-05-22T04:45:54;100811.28;;;17.72;nan
64841;BME280;51307;52.162;7.560;2023-05-22T04:48:22;100809.66;;;17.71;nan
64841;BME280;51307;52.162;7.560;2023-05-22T04:50:48;100807.75;;;17.65;nan
64841;BME280;51307;52.162;7.560;2023-05-22T04:53:14;100806.31;;;17.83;nan
64841;BME280;51307;52.162;7.560;2023-05-22T04:55:39;100806.94;;;17.71;nan
64841;BME280;51307;52.162;7.560;2023-05-22T04:58:05;100813.19;;;17.72;nan
64841;BME280;51307;52.162;7.560;2023-05-22T05:00:30;100810.47;;;17.65;nan
64841;BME280;51307;52.162;7.560;2023-05-22T05:02:56;100812.97;;;17.73;nan
64841;BME280;51307;52.162;7.560;2023-05-22T05:05:22;100816.69;;;17.72;nan
64841;BME280;51307;52.162;7.560;2023-05-22T05:07:48;100806.31;;;17.83;nan
64841;BME280;51307;52.162;7.560;2023-05-22T05:10:14;100812.75;;;17.75;nan
64841;BME280;51307;52.162;7.560;2023-05-22T05:12:40;100812.34;;;17.85;nan
64841;BME280;51307;52.162;7.560;2023-05-22T05:15:06;100811.09;;;17.94;nan
64841;BME280;51307;52.162;7.560;2023-05-22T05:17:32;100817.56;;;17.79;nan
64841;BME280;51307;52.162;7.560;2023-05-22T05:19:58;100821.50;;;17.90;nan
64841;BME280;51307;52.162;7.560;2023-05-22T05:22:24;100810.91;;;17.89;nan
64841;BME280;51307;52.162;7.560;2023-05-22T05:24:49;100822.34;;;17.84;nan
64841;BME280;51307;52.162;7.560;2023-05-22T05:27:15;100821.72;;;17.89;nan
64841;BME280;51307;52.162;7.560;2023-05-22T05:29:40;100828.78;;;17.90;nan
64841;BME280;51307;52.162;7.560;2023-05-22T05:32:06;100821.72;;;18.09;nan
64841;BME280;51307;52.162;7.560;2023-05-22T05:34:32;100829.00;;;18.02;nan
64841;BME280;51307;52.162;7.560;2023-05-22T05:36:58;100827.94;;;18.09;nan
64841;BME280;51307;52.162;7.560;2023-05-22T05:39:23;100824.19;;;18.24;nan
64841;BME280;51307;52.162;7.560;2023-05-22T05:41:49;100826.47;;;18.27;nan
64841;BME280;51307;52.162;7.560;2023-05-22T05:44:14;100828.97;;;18.28;nan
64841;BME280;51307;52.162;7.560;2023-05-22T05:46:40;100834.81;;;18.19;nan
64841;BME280;51307;52.162;7.560;2023-05-22T05:49:09;100832.34;;;18.10;nan
64841;BME280;51307;52.162;7.560;2023-05-22T05:51:36;100833.59;;;18.14;nan
64841;BME280;51307;52.162;7.560;2023-05-22T05:54:01;100835.44;;;18.41;nan
64841;BME280;51307;52.162;7.560;2023-05-22T05:56:27;100838.13;;;18.27;nan
64841;BME280;51307;52.162;7.560;2023-05-22T05:58:52;100833.16;;;18.31;nan
64841;BME280;51307;52.162;7.560;2023-05-22T06:01:18;100834.59;;;18.47;nan
64841;BME280;51307;52.162;7.560;2023-05-22T06:03:44;100839.97;;;18.60;nan
64841;BME280;51307;52.162;7.560;2023-05-22T06:06:09;100840.00;;;18.54;nan
64841;BME280;51307;52.162;7.560;2023-05-22T06:08:36;100834.16;;;18.57;nan
64841;BME280;51307;52.162;7.560;2023-05-22T06:11:02;100830.19;;;18.59;nan
64841;BME280;51307;52.162;7.560;2023-05-22T06:13:28;100845.16;;;18.75;nan
64841;BME280;51307;52.162;7.560;2023-05-22T06:15:54;100844.28;;;18.88;nan
64841;BME280;51307;52.162;7.560;2023-05-22T06:18:19;100848.81;;;18.94;nan
64841;BME280;51307;52.162;7.560;2023-05-22T06:20:45;100846.53;;;18.98;nan
64841;BME280;51307;52.162;7.560;2023-05-22T06:23:11;100847.00;;;18.88;nan
64841;BME280;51307;52.162;7.560;2023-05-22T06:25:36;100846.56;;;18.91;nan
64841;BME280;51307;52.162;7.560;2023-05-22T06:28:04;100850.84;;;19.12;nan
64841;BME280;51307;52.162;7.560;2023-05-22T06:30:30;100855.41;;;19.12;nan
64841;BME280;51307;52.162;7.560;2023-05-22T06:32:56;100859.19;;;19.11;nan
64841;BME280;51307;52.162;7.560;2023-05-22T06:35:21;100853.69;;;19.31;nan
64841;BME280;51307;52.162;7.560;2023-05-22T06:37:47;100854.97;;;19.15;nan
64841;BME280;51307;52.162;7.560;2023-05-22T06:40:12;100850.16;;;19.30;nan
64841;BME280;51307;52.162;7.560;2023-05-22T06:42:38;100860.00;;;19.25;nan
64841;BME280;51307;52.162;7.560;2023-05-22T06:45:04;100857.88;;;19.27;nan
64841;BME280;51307;52.162;7.560;2023-05-22T06:47:30;100862.50;;;19.26;nan
64841;BME280;51307;52.162;7.560;2023-05-22T06:49:56;100860.78;;;19.32;nan
64841;BME280;51307;52.162;7.560;2023-05-22T06:52:21;100866.16;;;19.39;nan
64841;BME280;51307;52.162;7.560;2023-05-22T06:54:47;100861.50;;;19.53;nan
64841;BME280;51307;52.162;7.560;2023-05-22T06:57:13;100857.59;;;19.42;nan
64841;BME280;51307;52.162;7.560;2023-05-22T06:59:38;100862.34;;;19.53;nan
64841;BME280;51307;52.162;7.560;2023-05-22T07:02:04;100865.00;;;19.60;nan
64841;BME280;51307;52.162;7.560;2023-05-22T07:04:30;100866.09;;;19.52;nan
64841;BME280;51307;52.162;7.560;2023-05-22T07:06:55;100868.50;;;19.67;nan
64841;BME280;51307;52.162;7.560;2023-05-22T07:09:21;100872.47;;;19.64;nan
64841;BME280;51307;52.162;7.560;2023-05-22T07:11:46;100867.63;;;19.73;nan
64841;BME280;51307;52.162;7.560;2023-05-22T07:14:12;100861.00;;;19.69;nan
64841;BME280;51307;52.162;7.560;2023-05-22T07:16:38;100874.41;;;19.57;nan
64841;BME280;51307;52.162;7.560;2023-05-22T07:19:04;100873.16;;;19.60;nan
64841;BME280;51307;52.162;7.560;2023-05-22T07:21:31;100869.72;;;19.71;nan
64841;BME280;51307;52.162;7.560;2023-05-22T07:23:56;100871.13;;;19.80;nan
64841;BME280;51307;52.162;7.560;2023-05-22T07:26:22;100878.91;;;19.70;nan
64841;BME280;51307;52.162;7.560;2023-05-22T07:28:48;100879.28;;;19.80;nan
64841;BME280;51307;52.162;7.560;2023-05-22T07:31:13;100879.66;;;19.84;nan
64841;BME280;51307;52.162;7.560;2023-05-22T07:33:39;100880.50;;;19.85;nan
64841;BME280;51307;52.162;7.560;2023-05-22T07:36:05;100886.03;;;19.96;nan
64841;BME280;51307;52.162;7.560;2023-05-22T07:38:30;100876.91;;;19.91;nan
64841;BME280;51307;52.162;7.560;2023-05-22T07:40:56;100884.75;;;19.74;nan
64841;BME280;51307;52.162;7.560;2023-05-22T07:43:21;100882.84;;;19.74;nan
64841;BME280;51307;52.162;7.560;2023-05-22T07:45:47;100883.19;;;19.53;nan
64841;BME280;51307;52.162;7.560;2023-05-22T07:48:12;100879.91;;;19.83;nan
64841;BME280;51307;52.162;7.560;2023-05-22T07:50:38;100876.22;;;19.95;nan
64841;BME280;51307;52.162;7.560;2023-05-22T07:53:04;100879.94;;;20.01;nan
64841;BME280;51307;52.162;7.560;2023-05-22T07:55:30;100886.19;;;20.08;nan
64841;BME280;51307;52.162;7.560;2023-05-22T07:57:56;100885.81;;;20.05;nan
64841;BME280;51307;52.162;7.560;2023-05-22T08:00:21;100890.31;;;20.18;nan
64841;BME280;51307;52.162;7.560;2023-05-22T08:02:47;100887.03;;;20.02;nan
64841;BME280;51307;52.162;7.560;2023-05-22T08:05:12;100887.94;;;19.96;nan
64841;BME280;51307;52.162;7.560;2023-05-22T08:07:38;100889.63;;;19.90;nan
64841;BME280;51307;52.162;7.560;2023-05-22T08:10:12;100885.25;;;20.21;nan
64841;BME280;51307;52.162;7.560;2023-05-22T08:12:37;100895.75;;;20.36;nan
64841;BME280;51307;52.162;7.560;2023-05-22T08:15:03;100892.06;;;20.30;nan
64841;BME280;51307;52.162;7.560;2023-05-22T08:17:29;100897.59;;;20.42;nan
64841;BME280;51307;52.162;7.560;2023-05-22T08:19:54;100893.31;;;20.53;nan
64841;BME280;51307;52.162;7.560;2023-05-22T08:22:20;100900.53;;;20.41;nan
64841;BME280;51307;52.162;7.560;2023-05-22T08:24:45;100891.81;;;20.57;nan
64841;BME280;51307;52.162;7.560;2023-05-22T08:27:11;100890.69;;;20.65;nan
64841;BME280;51307;52.162;7.560;2023-05-22T08:29:36;100894.63;;;20.69;nan
64841;BME280;51307;52.162;7.560;2023-05-22T08:32:02;100896.19;;;20.58;nan
64841;BME280;51307;52.162;7.560;2023-05-22T08:34:28;100894.09;;;20.79;nan
64841;BME280;51307;52.162;7.560;2023-05-22T08:36:53;100895.75;;;20.80;nan
64841;BME280;51307;52.162;7.560;2023-05-22T08:39:19;100889.50;;;20.79;nan
64841;BME280;51307;52.162;7.560;2023-05-22T08:41:45;100888.44;;;20.62;nan
64841;BME280;51307;52.162;7.560;2023-05-22T08:44:12;100893.03;;;20.80;nan
64841;BME280;51307;52.162;7.560;2023-05-22T08:46:39;100890.28;;;20.87;nan
64841;BME280;51307;52.162;7.560;2023-05-22T08:49:07;100889.31;;;20.56;nan
64841;BME280;51307;52.162;7.560;2023-05-22T08:51:37;100882.63;;;20.77;nan
64841;BME280;51307;52.162;7.560;2023-05-22T08:54:05;100892.03;;;20.56;nan
64841;BME280;51307;52.162;7.560;2023-05-22T08:56:37;100885.88;;;20.86;nan
64841;BME280;51307;52.162;7.560;2023-05-22T08:59:05;100888.28;;;20.94;nan
64841;BME280;51307;52.162;7.560;2023-05-22T09:01:31;100878.38;;;20.99;nan
64841;BME280;51307;52.162;7.560;2023-05-22T09:03:59;100879.63;;;21.04;nan
64841;BME280;51307;52.162;7.560;2023-05-22T09:06:26;100894.59;;;20.94;nan
64841;BME280;51307;52.162;7.560;2023-05-22T09:08:54;100882.97;;;20.80;nan
64841;BME280;51307;52.162;7.560;2023-05-22T09:11:20;100879.81;;;20.65;nan
64841;BME280;51307;52.162;7.560;2023-05-22T09:13:45;100882.97;;;20.80;nan
64841;BME280;51307;52.162;7.560;2023-05-22T09:16:11;100886.38;;;20.76;nan
64841;BME280;51307;52.162;7.560;2023-05-22T09:18:38;100886.53;;;20.99;nan
64841;BME280;51307;52.162;7.560;2023-05-22T09:21:10;100882.16;;;20.80;nan
64841;BME280;51307;52.162;7.560;2023-05-22T09:23:35;100884.13;;;20.73;nan
64841;BME280;51307;52.162;7.560;2023-05-22T09:26:02;100878.38;;;20.81;nan
64841;BME280;51307;52.162;7.560;2023-05-22T09:28:35;100883.00;;;20.99;nan
64841;BME280;51307;52.162;7.560;2023-05-22T09:31:02;100882.25;;;21.10;nan
64841;BME280;51307;52.162;7.560;2023-05-22T09:33:29;100882.28;;;20.92;nan
64841;BME280;51307;52.162;7.560;2023-05-22T09:35:56;100885.56;;;20.94;nan
64841;BME280;51307;52.162;7.560;2023-05-22T09:38:28;100876.66;;;21.05;nan
64841;BME280;51307;52.162;7.560;2023-05-22T09:40:55;100873.06;;;20.93;nan
64841;BME280;51307;52.162;7.560;2023-05-22T09:43:22;100873.31;;;21.22;nan
64841;BME280;51307;52.162;7.560;2023-05-22T09:45:55;100876.25;;;21.20;nan
64841;BME280;51307;52.162;7.560;2023-05-22T09:48:22;100869.97;;;21.20;nan
64841;BME280;51307;52.162;7.560;2023-05-22T09:50:52;100876.25;;;21.20;nan
64841;BME280;51307;52.162;7.560;2023-05-22T09:53:19;100879.16;;;21.07;nan
64841;BME280;51307;52.162;7.560;2023-05-22T09:55:51;100878.28;;;21.25;nan
64841;BME280;51307;52.162;7.560;2023-05-22T09:58:18;100880.97;;;21.43;nan
64841;BME280;51307;52.162;7.560;2023-05-22T10:00:45;100883.38;;;21.52;nan
64841;BME280;51307;52.162;7.560;2023-05-22T10:03:13;100884.41;;;21.51;nan
64841;BME280;51307;52.162;7.560;2023-05-22T10:05:49;100875.81;;;21.54;nan
64841;BME280;51307;52.162;7.560;2023-05-22T10:08:27;100879.25;;;21.61;nan
64841;BME280;51307;52.162;7.560;2023-05-22T10:10:52;100869.13;;;21.68;nan
64841;BME280;51307;52.162;7.560;2023-05-22T10:13:19;100873.41;;;21.76;nan
64841;BME280;51307;52.162;7.560;2023-05-22T10:15:49;100884.78;;;21.73;nan
64841;BME280;51307;52.162;7.560;2023-05-22T10:18:15;100873.41;;;21.45;nan
64841;BME280;51307;52.162;7.560;2023-05-22T10:20:42;100869.00;;;21.63;nan
64841;BME280;51307;52.162;7.560;2023-05-22T10:23:09;100877.09;;;21.81;nan
64841;BME280;51307;52.162;7.560;2023-05-22T10:25:38;100867.59;;;21.72;nan
64841;BME280;51307;52.162;7.560;2023-05-22T10:28:05;100864.44;;;21.99;nan
64841;BME280;51307;52.162;7.560;2023-05-22T10:30:48;100860.41;;;22.02;nan
64841;BME280;51307;52.162;7.560;2023-05-22T10:33:22;100865.28;;;21.99;nan
64841;BME280;51307;52.162;7.560;2023-05-22T10:35:56;100858.19;;;22.10;nan
64841;BME280;51307;52.162;7.560;2023-05-22T10:41:21;100850.47;;;22.19;nan
64841;BME280;51307;52.162;7.560;2023-05-22T10:43:50;100846.13;;;22.18;nan
64841;BME280;51307;52.162;7.560;2023-05-22T10:46:16;100846.94;;;22.30;nan
64841;BME280;51307;52.162;7.560;2023-05-22T10:48:46;100843.03;;;22.14;nan
64841;BME280;51307;52.162;7.560;2023-05-22T10:51:14;100838.16;;;22.28;nan
64841;BME280;51307;52.162;7.560;2023-05-22T10:53:43;100840.09;;;22.40;nan
64841;BME280;51307;52.162;7.560;2023-05-22T10:56:14;100840.19;;;22.45;nan
64841;BME280;51307;52.162;7.560;2023-05-22T10:58:45;100838.63;;;22.49;nan
64841;BME280;51307;52.162;7.560;2023-05-22T11:01:19;100836.28;;;22.41;nan
64841;BME280;51307;52.162;7.560;2023-05-22T11:09:28;100837.06;;;22.65;nan
64841;BME280;51307;52.162;7.560;2023-05-22T11:17:16;100832.91;;;22.74;nan
64841;BME280;51307;52.162;7.560;2023-05-22T11:19:48;100833.16;;;22.73;nan
64841;BME280;51307;52.162;7.560;2023-05-22T11:22:21;100823.03;;;22.85;nan
64841;BME280;51307;52.162;7.560;2023-05-22T11:24:46;100826.13;;;22.89;nan
64841;BME280;51307;52.162;7.560;2023-05-22T11:27:12;100825.97;;;22.95;nan
64841;BME280;51307;52.162;7.560;2023-05-22T11:29:39;100826.78;;;22.96;nan
64841;BME280;51307;52.162;7.560;2023-05-22T11:32:07;100824.06;;;22.96;nan
64841;BME280;51307;52.162;7.560;2023-05-22T11:34:33;100820.38;;;23.02;nan
64841;BME280;51307;52.162;7.560;2023-05-22T11:36:59;100830.81;;;23.05;nan
64841;BME280;51307;52.162;7.560;2023-05-22T11:39:24;100821.03;;;23.21;nan
64841;BME280;51307;52.162;7.560;2023-05-22T11:41:50;100825.28;;;23.29;nan
64841;BME280;51307;52.162;7.560;2023-05-22T11:44:16;100821.31;;;23.08;nan
64841;BME280;51307;52.162;7.560;2023-05-22T11:46:41;100823.69;;;23.04;nan
64841;BME280;51307;52.162;7.560;2023-05-22T11:49:10;100817.06;;;23.00;nan
64841;BME280;51307;52.162;7.560;2023-05-22T11:51:39;100819.56;;;23.02;nan
64841;BME280;51307;52.162;7.560;2023-05-22T11:54:05;100819.88;;;23.17;nan
64841;BME280;51307;52.162;7.560;2023-05-22T11:56:32;100817.16;;;23.17;nan
64841;BME280;51307;52.162;7.560;2023-05-22T11:58:57;100817.16;;;23.17;nan
64841;BME280;51307;52.162;7.560;2023-05-22T12:01:23;100817.63;;;23.14;nan
64841;BME280;51307;52.162;7.560;2023-05-22T12:03:48;100813.63;;;23.05;nan
64841;BME280;51307;52.162;7.560;2023-05-22T12:06:16;100821.19;;;23.03;nan
64841;BME280;51307;52.162;7.560;2023-05-22T12:08:41;100810.97;;;23.10;nan
64841;BME280;51307;52.162;7.560;2023-05-22T12:11:10;100809.56;;;23.07;nan
64841;BME280;51307;52.162;7.560;2023-05-22T12:13:36;100814.41;;;23.17;nan
64841;BME280;51307;52.162;7.560;2023-05-22T12:16:19;100808.50;;;23.08;nan
64841;BME280;51307;52.162;7.560;2023-05-22T12:18:54;100816.09;;;23.06;nan
64841;BME280;51307;52.162;7.560;2023-05-22T12:21:21;100809.88;;;23.23;nan
64841;BME280;51307;52.162;7.560;2023-05-22T12:23:48;100814.38;;;23.29;nan
64841;BME280;51307;52.162;7.560;2023-05-22T12:26:16;100811.38;;;23.30;nan
64841;BME280;51307;52.162;7.560;2023-05-22T12:28:42;100816.28;;;23.45;nan
64841;BME280;51307;52.162;7.560;2023-05-22T12:31:08;100811.75;;;23.51;nan
64841;BME280;51307;52.162;7.560;2023-05-22T12:33:33;100816.72;;;23.54;nan
64841;BME280;51307;52.162;7.560;2023-05-22T12:35:59;100818.44;;;23.43;nan
64841;BME280;51307;52.162;7.560;2023-05-22T12:38:26;100813.56;;;23.45;nan
64841;BME280;51307;52.162;7.560;2023-05-22T12:40:53;100812.16;;;23.60;nan
64841;BME280;51307;52.162;7.560;2023-05-22T12:43:21;100811.84;;;23.56;nan
64841;BME280;51307;52.162;7.560;2023-05-22T12:45:47;100809.09;;;23.56;nan
64841;BME280;51307;52.162;7.560;2023-05-22T12:48:13;100795.09;;;23.53;nan
64841;BME280;51307;52.162;7.560;2023-05-22T12:50:39;100799.03;;;23.57;nan
64841;BME280;51307;52.162;7.560;2023-05-22T12:53:05;100802.56;;;23.57;nan
64841;BME280;51307;52.162;7.560;2023-05-22T12:55:31;100790.88;;;23.62;nan
64841;BME280;51307;52.162;7.560;2023-05-22T12:57:57;100791.56;;;23.69;nan
64841;BME280;51307;52.162;7.560;2023-05-22T13:00:22;100799.00;;;23.74;nan
64841;BME280;51307;52.162;7.560;2023-05-22T13:02:48;100799.53;;;23.88;nan
64841;BME280;51307;52.162;7.560;2023-05-22T13:05:14;100802.91;;;23.78;nan
64841;BME280;51307;52.162;7.560;2023-05-22T13:07:39;100805.06;;;23.93;nan
64841;BME280;51307;52.162;7.560;2023-05-22T13:10:05;100804.50;;;23.91;nan
64841;BME280;51307;52.162;7.560;2023-05-22T13:12:31;100797.38;;;23.90;nan
64841;BME280;51307;52.162;7.560;2023-05-22T13:15:00;100799.78;;;23.86;nan
64841;BME280;51307;52.162;7.560;2023-05-22T13:17:26;100799.94;;;23.96;nan
64841;BME280;51307;52.162;7.560;2023-05-22T13:19:56;100800.84;;;24.02;nan
64841;BME280;51307;52.162;7.560;2023-05-22T13:22:22;100795.38;;;24.02;nan
64841;BME280;51307;52.162;7.560;2023-05-22T13:24:48;100793.66;;;23.96;nan
64841;BME280;51307;52.162;7.560;2023-05-22T13:27:16;100799.19;;;24.01;nan
64841;BME280;51307;52.162;7.560;2023-05-22T13:29:42;100787.25;;;24.07;nan
64841;BME280;51307;52.162;7.560;2023-05-22T13:32:07;100796.53;;;24.06;nan
64841;BME280;51307;52.162;7.560;2023-05-22T13:34:48;100802.97;;;24.17;nan